EST,Max TemperatureF,Mean TemperatureF,Min TemperatureF,Max Dew PointF,MeanDew PointF,Min DewpointF,Max Humidity, Mean Humidity, Min Humidity, Max Sea Level PressureIn, Mean Sea Level PressureIn, Min Sea Level PressureIn, Max VisibilityMiles, Mean VisibilityMiles, Min VisibilityMiles, Max Wind SpeedMPH, Mean Wind SpeedMPH, Max Gust SpeedMPH,PrecipitationIn, CloudCover, Events, WindDirDegrees
2012-12-1,64,50,35,42,39,33,93,71,41,30.38,30.31,30.27,10,9,6,9,1,,0.00,0,,190
2012-12-2,68,55,42,50,45,39,92,73,49,30.34,30.27,30.19,10,10,7,14,4,23,0.00,1,,207
2012-12-3,73,60,46,49,46,44,93,68,39,30.27,30.23,30.18,10,10,10,7,1,,0.00,1,,219
2012-12-4,72,58,44,50,46,42,93,65,38,30.28,30.20,30.12,10,10,10,13,4,20,0.00,2,,217
2012-12-5,62,54,43,54,47,35,90,72,51,30.17,30.12,30.07,10,10,10,8,3,,0.01,6,Rain,80
2012-12-6,48,44,39,36,34,32,86,65,56,30.30,30.22,30.17,10,10,10,9,3,,0.00,7,Rain,48
2012-12-7,55,50,44,45,40,34,100,77,62,30.17,30.06,29.99,10,8,0,4,0,,0.00,7,Fog,180
2012-12-8,66,52,39,52,45,37,100,88,56,30.04,29.99,29.94,10,4,0,9,2,,0.01,3,Fog,197
2012-12-9,66,57,48,57,53,46,100,92,68,30.10,30.03,29.95,10,4,0,12,2,17,0.01,5,Fog,195
2012-12-10,62,60,57,58,56,55,94,89,82,29.98,29.76,29.65,10,8,5,12,7,21,0.05,7,Rain,202
2012-12-11,59,50,39,55,39,31,90,66,48,30.12,29.89,29.68,10,10,10,9,5,,0.00,5,,347
2012-12-12,46,42,39,34,30,27,82,63,53,30.28,30.22,30.14,10,10,10,13,4,,0.00,5,,33
2012-12-13,51,42,32,26,22,17,73,45,27,30.38,30.32,30.27,10,10,10,10,7,18,0.00,3,,42
2012-12-14,57,42,27,29,25,22,85,59,30,30.36,30.28,30.21,10,10,10,5,1,,0.00,0,,317
2012-12-15,55,46,36,33,31,30,82,58,40,30.22,30.14,30.04,10,10,10,7,1,,0.00,2,,208
2012-12-16,48,46,43,48,44,30,97,89,48,30.06,29.96,29.87,10,4,1,6,2,,0.55,8,Rain,306
2012-12-17,55,52,48,53,50,48,100,95,88,29.90,29.77,29.61,10,4,0,12,2,17,0.20,7,Fog-Rain,214
2012-12-18,55,49,43,52,38,25,100,66,35,29.90,29.74,29.62,10,9,0,14,5,25,0.01,3,Fog,264
2012-12-19,64,50,36,40,33,23,80,52,33,30.07,29.98,29.88,10,10,10,7,3,,0.00,0,,260
2012-12-20,46,42,37,43,39,32,100,88,65,30.06,29.75,29.52,10,6,1,15,4,26,0.96,6,Rain,3
2012-12-21,39,38,37,28,21,17,63,51,43,29.86,29.71,29.58,10,10,10,21,15,33,0.00,7,,283
2012-12-22,55,42,30,17,11,3,52,33,13,30.09,30.01,29.87,10,10,10,15,11,33,0.00,0,,301
2012-12-23,55,40,26,26,18,9,69,42,21,30.12,30.04,29.99,10,10,10,8,2,,0.00,2,,201
2012-12-24,46,44,41,43,40,28,100,91,48,29.96,29.91,29.85,10,3,0,6,3,,0.81,8,Fog-Rain,217
2012-12-25,46,42,39,43,41,39,100,93,80,30.09,30.01,29.91,10,4,0,8,2,,0.02,7,Fog-Rain,350
2012-12-26,45,41,37,43,38,27,100,91,67,29.96,29.66,29.46,10,6,2,16,10,24,2.20,8,Rain,27
2012-12-27,48,39,30,30,26,24,82,64,46,30.05,29.90,29.69,10,10,10,10,4,,0.00,0,,297
2012-12-28,41,34,27,33,27,24,89,74,55,30.14,30.05,29.94,10,10,7,5,0,,0.01,2,Rain,205
2012-12-29,50,42,33,38,32,19,100,85,44,30.00,29.80,29.70,10,4,1,16,3,25,0.17,6,Rain,297
2012-12-30,46,37,28,19,17,15,61,46,28,30.36,30.24,30.03,10,10,10,16,8,30,0.00,0,,286
2012-12-31,51,40,28,26,22,18,75,53,33,30.33,30.23,30.07,10,10,10,7,2,,0.00,2,,213